sensor_id;sensor_type;location;lat;lon;timestamp;pressure;altitude;pressure_sealevel;temperature;humidity
81397;BME280;70852;49.908;8.126;2023-06-22T00:02:02;100378.28;;;22.18;60.88
81397;BME280;70852;49.908;8.126;2023-06-22T00:04:28;100386.38;;;22.23;61.22
81397;BME280;70852;49.908;8.126;2023-06-22T00:06:53;100394.00;;;22.26;61.12
81397;BME280;70852;49.908;8.126;2023-06-22T00:09:18;100405.28;;;22.33;61.06
81397;BME280;70852;49.908;8.126;2023-06-22T00:11:44;100415.28;;;22.20;61.88
81397;BME280;70852;49.908;8.126;2023-06-22T00:14:12;100403.97;;;22.09;63.14
81397;BME280;70852;49.908;8.126;2023-06-22T00:16:37;100397.16;;;22.10;63.29
81397;BME280;70852;49.908;8.126;2023-06-22T00:19:02;100392.34;;;22.11;63.40
81397;BME280;70852;49.908;8.126;2023-06-22T00:21:28;100396.31;;;22.03;64.30
81397;BME280;70852;49.908;8.126;2023-06-22T00:23:54;100399.53;;;22.05;64.26
81397;BME280;70852;49.908;8.126;2023-06-22T00:26:23;100393.13;;;22.08;65.97
81397;BME280;70852;49.908;8.126;2023-06-22T00:28:48;100383.50;;;22.16;65.21
81397;BME280;70852;49.908;8.126;2023-06-22T00:31:14;100383.13;;;22.21;67.43
81397;BME280;70852;49.908;8.126;2023-06-22T00:33:41;100391.94;;;22.12;68.34
81397;BME280;70852;49.908;8.126;2023-06-22T00:36:07;100419.69;;;22.14;69.25
81397;BME280;70852;49.908;8.126;2023-06-22T00:38:35;100450.59;;;22.10;70.83
81397;BME280;70852;49.908;8.126;2023-06-22T00:41:05;100464.13;;;21.98;68.77
81397;BME280;70852;49.908;8.126;2023-06-22T00:43:30;100477.63;;;21.74;69.43
81397;BME280;70852;49.908;8.126;2023-06-22T00:45:58;100494.03;;;21.65;70.64
81397;BME280;70852;49.908;8.126;2023-06-22T00:48:24;100520.03;;;21.55;74.06
81397;BME280;70852;49.908;8.126;2023-06-22T00:50:50;100523.75;;;21.66;74.45
81397;BME280;70852;49.908;8.126;2023-06-22T00:53:18;100526.41;;;21.52;72.77
81397;BME280;70852;49.908;8.126;2023-06-22T00:55:45;100504.09;;;21.26;75.43
81397;BME280;70852;49.908;8.126;2023-06-22T00:58:12;100442.31;;;21.26;75.98
81397;BME280;70852;49.908;8.126;2023-06-22T01:00:43;100367.28;;;21.30;74.54
81397;BME280;70852;49.908;8.126;2023-06-22T01:03:11;100333.41;;;21.08;75.19
81397;BME280;70852;49.908;8.126;2023-06-22T01:05:37;100332.50;;;20.94;76.29
81397;BME280;70852;49.908;8.126;2023-06-22T01:10:51;100307.91;;;20.80;76.03
81397;BME280;70852;49.908;8.126;2023-06-22T01:13:42;100317.00;;;20.66;76.00
81397;BME280;70852;49.908;8.126;2023-06-22T01:18:43;100340.56;;;20.55;76.47
81397;BME280;70852;49.908;8.126;2023-06-22T01:21:16;100342.63;;;20.61;76.94
81397;BME280;70852;49.908;8.126;2023-06-22T01:29:22;100386.28;;;20.59;77.94
81397;BME280;70852;49.908;8.126;2023-06-22T01:31:54;100399.09;;;20.60;77.36
81397;BME280;70852;49.908;8.126;2023-06-22T01:34:19;100380.34;;;20.67;78.10
81397;BME280;70852;49.908;8.126;2023-06-22T01:36:46;100361.94;;;20.70;78.23
81397;BME280;70852;49.908;8.126;2023-06-22T01:39:12;100357.44;;;20.62;77.36
81397;BME280;70852;49.908;8.126;2023-06-22T01:41:39;100346.22;;;20.62;78.57
81397;BME280;70852;49.908;8.126;2023-06-22T01:44:08;100337.00;;;20.61;77.33
81397;BME280;70852;49.908;8.126;2023-06-22T01:46:37;100339.00;;;20.61;78.33
81397;BME280;70852;49.908;8.126;2023-06-22T01:49:06;100348.66;;;20.67;77.85
81397;BME280;70852;49.908;8.126;2023-06-22T01:51:31;100349.06;;;20.65;78.16
81397;BME280;70852;49.908;8.126;2023-06-22T01:53:57;100349.91;;;20.69;78.39
81397;BME280;70852;49.908;8.126;2023-06-22T01:56:22;100338.66;;;20.66;78.79
81397;BME280;70852;49.908;8.126;2023-06-22T01:59:03;100345.75;;;20.56;78.61
81397;BME280;70852;49.908;8.126;2023-06-22T02:01:37;100335.06;;;20.69;78.16
81397;BME280;70852;49.908;8.126;2023-06-22T02:04:18;100332.63;;;20.67;78.49
81397;BME280;70852;49.908;8.126;2023-06-22T02:06:46;100337.09;;;20.72;78.89
81397;BME280;70852;49.908;8.126;2023-06-22T02:09:17;100347.94;;;20.73;78.93
81397;BME280;70852;49.908;8.126;2023-06-22T02:11:47;100357.06;;;20.63;77.88
81397;BME280;70852;49.908;8.126;2023-06-22T02:14:17;100355.78;;;20.57;79.83
81397;BME280;70852;49.908;8.126;2023-06-22T02:16:43;100359.88;;;20.63;79.00
81397;BME280;70852;49.908;8.126;2023-06-22T02:19:08;100363.91;;;20.66;78.07
81397;BME280;70852;49.908;8.126;2023-06-22T02:21:34;100371.06;;;20.60;77.20
81397;BME280;70852;49.908;8.126;2023-06-22T02:23:59;100371.41;;;20.55;79.00
81397;BME280;70852;49.908;8.126;2023-06-22T02:26:25;100372.50;;;20.46;78.16
81397;BME280;70852;49.908;8.126;2023-06-22T02:28:51;100370.94;;;20.49;78.12
81397;BME280;70852;49.908;8.126;2023-06-22T02:31:17;100357.34;;;20.51;78.20
81397;BME280;70852;49.908;8.126;2023-06-22T02:33:43;100349.00;;;20.58;78.45
81397;BME280;70852;49.908;8.126;2023-06-22T02:36:09;100330.91;;;20.56;78.49
81397;BME280;70852;49.908;8.126;2023-06-22T02:38:37;100322.91;;;20.54;79.16
81397;BME280;70852;49.908;8.126;2023-06-22T02:41:03;100300.88;;;20.56;78.88
81397;BME280;70852;49.908;8.126;2023-06-22T02:43:31;100306.00;;;20.47;78.84
81397;BME280;70852;49.908;8.126;2023-06-22T02:45:58;100292.72;;;20.40;79.30
81397;BME280;70852;49.908;8.126;2023-06-22T02:48:28;100298.69;;;20.39;79.03
81397;BME280;70852;49.908;8.126;2023-06-22T02:50:53;100303.88;;;20.37;79.05
81397;BME280;70852;49.908;8.126;2023-06-22T02:53:19;100306.78;;;20.44;78.68
81397;BME280;70852;49.908;8.126;2023-06-22T02:55:44;100300.38;;;20.47;79.21
81397;BME280;70852;49.908;8.126;2023-06-22T02:58:09;100293.19;;;20.50;78.98
81397;BME280;70852;49.908;8.126;2023-06-22T03:00:39;100288.06;;;20.55;79.23
81397;BME280;70852;49.908;8.126;2023-06-22T03:03:04;100281.06;;;20.38;79.30
81397;BME280;70852;49.908;8.126;2023-06-22T03:05:32;100277.75;;;20.29;79.38
81397;BME280;70852;49.908;8.126;2023-06-22T03:07:57;100281.78;;;20.32;79.89
81397;BME280;70852;49.908;8.126;2023-06-22T03:10:23;100287.88;;;20.37;79.52
81397;BME280;70852;49.908;8.126;2023-06-22T03:12:48;100280.31;;;20.41;79.73
81397;BME280;70852;49.908;8.126;2023-06-22T03:15:13;100277.84;;;20.36;79.26
81397;BME280;70852;49.908;8.126;2023-06-22T03:17:42;100279.34;;;20.30;80.22
81397;BME280;70852;49.908;8.126;2023-06-22T03:20:10;100280.47;;;20.22;79.71
81397;BME280;70852;49.908;8.126;2023-06-22T03:22:40;100280.50;;;20.26;79.65
81397;BME280;70852;49.908;8.126;2023-06-22T03:25:07;100278.81;;;20.18;79.78
81397;BME280;70852;49.908;8.126;2023-06-22T03:27:42;100283.19;;;20.15;79.66
81397;BME280;70852;49.908;8.126;2023-06-22T03:30:10;100278.31;;;20.08;80.08
81397;BME280;70852;49.908;8.126;2023-06-22T03:32:36;100278.31;;;20.08;80.92
81397;BME280;70852;49.908;8.126;2023-06-22T03:35:02;100270.53;;;19.91;80.72
81397;BME280;70852;49.908;8.126;2023-06-22T03:37:31;100273.84;;;20.00;80.63
81397;BME280;70852;49.908;8.126;2023-06-22T03:39:56;100270.91;;;19.90;80.71
81397;BME280;70852;49.908;8.126;2023-06-22T03:42:22;100268.09;;;19.90;80.62
81397;BME280;70852;49.908;8.126;2023-06-22T03:44:49;100264.56;;;19.96;80.27
81397;BME280;70852;49.908;8.126;2023-06-22T03:47:15;100263.00;;;19.99;80.41
81397;BME280;70852;49.908;8.126;2023-06-22T03:49:40;100269.97;;;20.12;79.28
81397;BME280;70852;49.908;8.126;2023-06-22T03:52:05;100275.16;;;20.14;79.90
81397;BME280;70852;49.908;8.126;2023-06-22T03:54:31;100275.56;;;20.12;79.75
81397;BME280;70852;49.908;8.126;2023-06-22T03:56:57;100283.88;;;20.05;80.13
81397;BME280;70852;49.908;8.126;2023-06-22T03:59:28;100290.78;;;20.11;80.39
81397;BME280;70852;49.908;8.126;2023-06-22T04:01:53;100282.63;;;20.02;80.65
81397;BME280;70852;49.908;8.126;2023-06-22T04:04:18;100294.75;;;20.10;80.16
81397;BME280;70852;49.908;8.126;2023-06-22T04:06:46;100285.16;;;20.11;79.83
81397;BME280;70852;49.908;8.126;2023-06-22T04:09:12;100295.44;;;20.00;80.12
81397;BME280;70852;49.908;8.126;2023-06-22T04:11:42;100300.91;;;19.89;80.32
81397;BME280;70852;49.908;8.126;2023-06-22T04:14:08;100295.47;;;20.03;79.92
81397;BME280;70852;49.908;8.126;2023-06-22T04:16:40;100296.28;;;20.04;80.01
81397;BME280;70852;49.908;8.126;2023-06-22T04:19:10;100289.84;;;20.00;79.74
81397;BME280;70852;49.908;8.126;2023-06-22T04:21:42;100296.19;;;19.97;80.16
81397;BME280;70852;49.908;8.126;2023-06-22T04:24:07;100301.88;;;20.04;80.13
81397;BME280;70852;49.908;8.126;2023-06-22T04:26:38;100297.88;;;20.05;80.20
81397;BME280;70852;49.908;8.126;2023-06-22T04:29:04;100292.03;;;20.17;80.44
81397;BME280;70852;49.908;8.126;2023-06-22T04:31:37;100295.25;;;20.19;80.14
81397;BME280;70852;49.908;8.126;2023-06-22T04:34:07;100303.66;;;20.19;80.01
81397;BME280;70852;49.908;8.126;2023-06-22T04:36:38;100302.91;;;20.22;79.94
81397;BME280;70852;49.908;8.126;2023-06-22T04:39:07;100293.34;;;20.27;80.50
81397;BME280;70852;49.908;8.126;2023-06-22T04:41:34;100289.59;;;20.12;80.47
81397;BME280;70852;49.908;8.126;2023-06-22T04:44:10;100290.38;;;20.13;80.58
81397;BME280;70852;49.908;8.126;2023-06-22T04:46:36;100290.28;;;20.05;80.64
81397;BME280;70852;49.908;8.126;2023-06-22T04:49:07;100291.16;;;20.09;80.35
81397;BME280;70852;49.908;8.126;2023-06-22T04:51:37;100296.41;;;20.15;80.40
81397;BME280;70852;49.908;8.126;2023-06-22T04:54:06;100287.19;;;20.14;80.35
81397;BME280;70852;49.908;8.126;2023-06-22T04:56:34;100290.03;;;20.18;79.81
81397;BME280;70852;49.908;8.126;2023-06-22T04:59:00;100282.69;;;20.06;79.65
81397;BME280;70852;49.908;8.126;2023-06-22T05:01:28;100286.72;;;20.08;79.86
81397;BME280;70852;49.908;8.126;2023-06-22T05:03:56;100289.59;;;20.12;79.56
81397;BME280;70852;49.908;8.126;2023-06-22T05:06:22;100288.09;;;20.22;79.44
81397;BME280;70852;49.908;8.126;2023-06-22T05:08:53;100293.00;;;20.32;79.48
81397;BME280;70852;49.908;8.126;2023-06-22T05:11:25;100292.38;;;20.49;78.73
81397;BME280;70852;49.908;8.126;2023-06-22T05:13:53;100279.75;;;20.69;78.23
81397;BME280;70852;49.908;8.126;2023-06-22T05:16:19;100286.31;;;20.84;77.30
81397;BME280;70852;49.908;8.126;2023-06-22T05:18:58;100274.72;;;20.93;77.00
81397;BME280;70852;49.908;8.126;2023-06-22T05:21:26;100273.56;;;20.97;77.20
81397;BME280;70852;49.908;8.126;2023-06-22T05:23:56;100266.03;;;21.12;77.80
81397;BME280;70852;49.908;8.126;2023-06-22T05:26:33;100258.16;;;21.32;75.36
81397;BME280;70852;49.908;8.126;2023-06-22T05:28:59;100259.84;;;21.43;75.74
81397;BME280;70852;49.908;8.126;2023-06-22T05:31:26;100262.16;;;21.27;75.41
81397;BME280;70852;49.908;8.126;2023-06-22T05:33:55;100258.66;;;21.44;74.49
81397;BME280;70852;49.908;8.126;2023-06-22T05:36:27;100265.50;;;21.54;74.42
81397;BME280;70852;49.908;8.126;2023-06-22T05:38:56;100264.34;;;21.62;74.23
81397;BME280;70852;49.908;8.126;2023-06-22T05:41:21;100263.56;;;21.65;73.85
81397;BME280;70852;49.908;8.126;2023-06-22T05:43:47;100259.53;;;21.63;74.23
81397;BME280;70852;49.908;8.126;2023-06-22T05:46:12;100258.78;;;21.69;74.19
81397;BME280;70852;49.908;8.126;2023-06-22T05:48:40;100265.22;;;21.77;74.07
81397;BME280;70852;49.908;8.126;2023-06-22T05:51:10;100273.28;;;21.85;72.98
81397;BME280;70852;49.908;8.126;2023-06-22T05:53:36;100267.34;;;22.05;73.53
81397;BME280;70852;49.908;8.126;2023-06-22T05:56:03;100260.56;;;22.16;73.59
81397;BME280;70852;49.908;8.126;2023-06-22T05:58:29;100260.16;;;22.11;73.13
81397;BME280;70852;49.908;8.126;2023-06-22T06:00:59;100260.19;;;22.21;72.22
81397;BME280;70852;49.908;8.126;2023-06-22T06:03:25;100261.00;;;22.40;72.24
81397;BME280;70852;49.908;8.126;2023-06-22T06:05:55;100255.00;;;22.52;71.42
81397;BME280;70852;49.908;8.126;2023-06-22T06:08:21;100269.47;;;22.61;70.96
81397;BME280;70852;49.908;8.126;2023-06-22T06:10:46;100261.81;;;22.69;72.27
81397;BME280;70852;49.908;8.126;2023-06-22T06:13:12;100266.69;;;22.89;70.61
81397;BME280;70852;49.908;8.126;2023-06-22T06:15:39;100261.44;;;23.09;69.37
81397;BME280;70852;49.908;8.126;2023-06-22T06:18:05;100257.41;;;23.17;68.92
81397;BME280;70852;49.908;8.126;2023-06-22T06:20:35;100261.00;;;23.28;67.86
81397;BME280;70852;49.908;8.126;2023-06-22T06:23:02;100265.84;;;23.17;69.03
81397;BME280;70852;49.908;8.126;2023-06-22T06:25:30;100256.63;;;23.03;67.51
81397;BME280;70852;49.908;8.126;2023-06-22T06:27:55;100263.06;;;22.89;70.68
81397;BME280;70852;49.908;8.126;2023-06-22T06:30:21;100263.84;;;23.18;70.10
81397;BME280;70852;49.908;8.126;2023-06-22T06:32:47;100267.03;;;23.38;67.35
81397;BME280;70852;49.908;8.126;2023-06-22T06:35:15;100250.09;;;23.45;67.13
81397;BME280;70852;49.908;8.126;2023-06-22T06:37:47;100244.84;;;23.57;66.47
81397;BME280;70852;49.908;8.126;2023-06-22T06:40:18;100252.06;;;23.69;65.78
81397;BME280;70852;49.908;8.126;2023-06-22T06:42:48;100249.19;;;23.83;65.88
81397;BME280;70852;49.908;8.126;2023-06-22T06:45:21;100249.88;;;23.98;64.78
81397;BME280;70852;49.908;8.126;2023-06-22T06:47:51;100249.78;;;24.19;64.23
81397;BME280;70852;49.908;8.126;2023-06-22T06:50:17;100259.31;;;24.47;63.20
81397;BME280;70852;49.908;8.126;2023-06-22T06:52:42;100255.44;;;24.78;62.60
81397;BME280;70852;49.908;8.126;2023-06-22T06:55:11;100251.81;;;24.77;62.02
81397;BME280;70852;49.908;8.126;2023-06-22T06:57:42;100247.69;;;25.30;60.97
81397;BME280;70852;49.908;8.126;2023-06-22T07:00:11;100241.44;;;25.83;58.10
81397;BME280;70852;49.908;8.126;2023-06-22T07:02:39;100249.47;;;26.15;58.81
81397;BME280;70852;49.908;8.126;2023-06-22T07:05:08;100238.06;;;26.49;56.81
81397;BME280;70852;49.908;8.126;2023-06-22T07:07:39;100237.22;;;26.76;54.47
81397;BME280;70852;49.908;8.126;2023-06-22T07:10:07;100253.09;;;26.96;54.95
81397;BME280;70852;49.908;8.126;2023-06-22T07:12:37;100247.03;;;27.18;52.89
81397;BME280;70852;49.908;8.126;2023-06-22T07:15:09;100237.50;;;27.71;53.03
81397;BME280;70852;49.908;8.126;2023-06-22T07:17:36;100231.97;;;27.84;51.51
81397;BME280;70852;49.908;8.126;2023-06-22T07:20:03;100236.50;;;27.61;51.11
81397;BME280;70852;49.908;8.126;2023-06-22T07:22:35;100220.53;;;27.87;50.22
81397;BME280;70852;49.908;8.126;2023-06-22T07:25:03;100221.66;;;27.74;50.34
81397;BME280;70852;49.908;8.126;2023-06-22T07:27:35;100233.41;;;27.92;51.54
81397;BME280;70852;49.908;8.126;2023-06-22T07:30:03;100225.00;;;28.40;50.45
81397;BME280;70852;49.908;8.126;2023-06-22T07:32:32;100222.22;;;28.21;49.55
81397;BME280;70852;49.908;8.126;2023-06-22T07:34:57;100224.91;;;28.08;49.93
81397;BME280;70852;49.908;8.126;2023-06-22T07:37:24;100223.03;;;27.85;49.20
81397;BME280;70852;49.908;8.126;2023-06-22T07:39:52;100218.22;;;28.18;50.05
81397;BME280;70852;49.908;8.126;2023-06-22T07:42:19;100217.47;;;28.83;49.62
81397;BME280;70852;49.908;8.126;2023-06-22T07:44:44;100214.69;;;28.30;49.28
81397;BME280;70852;49.908;8.126;2023-06-22T07:47:14;100205.66;;;28.68;49.06
81397;BME280;70852;49.908;8.126;2023-06-22T07:49:39;100215.19;;;28.77;48.19
81397;BME280;70852;49.908;8.126;2023-06-22T07:52:07;100218.19;;;29.03;47.12
81397;BME280;70852;49.908;8.126;2023-06-22T07:54:32;100225.38;;;28.59;48.37
81397;BME280;70852;49.908;8.126;2023-06-22T07:57:02;100222.19;;;28.89;48.02
81397;BME280;70852;49.908;8.126;2023-06-22T07:59:32;100213.31;;;28.55;48.31
81397;BME280;70852;49.908;8.126;2023-06-22T08:01:57;100208.47;;;28.19;50.64
81397;BME280;70852;49.908;8.126;2023-06-22T08:04:27;100211.47;;;28.12;49.87
81397;BME280;70852;49.908;8.126;2023-06-22T08:06:56;100205.31;;;28.17;49.80
81397;BME280;70852;49.908;8.126;2023-06-22T08:09:21;100189.47;;;28.16;49.60
81397;BME280;70852;49.908;8.126;2023-06-22T08:11:48;100192.09;;;28.27;50.79
81397;BME280;70852;49.908;8.126;2023-06-22T08:14:16;100194.63;;;28.21;50.59
81397;BME280;70852;49.908;8.126;2023-06-22T08:16:44;100184.09;;;28.22;50.96
81397;BME280;70852;49.908;8.126;2023-06-22T08:19:09;100182.44;;;28.04;50.00
81397;BME280;70852;49.908;8.126;2023-06-22T08:21:34;100176.53;;;28.31;49.65
81397;BME280;70852;49.908;8.126;2023-06-22T08:24:00;100171.25;;;28.50;48.91
81397;BME280;70852;49.908;8.126;2023-06-22T08:26:25;100175.75;;;28.63;49.48
81397;BME280;70852;49.908;8.126;2023-06-22T08:28:53;100173.81;;;28.44;49.26
81397;BME280;70852;49.908;8.126;2023-06-22T08:31:25;100184.66;;;28.13;49.83
81397;BME280;70852;49.908;8.126;2023-06-22T08:33:51;100168.56;;;28.59;48.73
81397;BME280;70852;49.908;8.126;2023-06-22T08:36:19;100157.91;;;28.47;48.81
81397;BME280;70852;49.908;8.126;2023-06-22T08:38:44;100158.56;;;27.66;50.50
81397;BME280;70852;49.908;8.126;2023-06-22T08:41:10;100159.63;;;28.08;49.10
81397;BME280;70852;49.908;8.126;2023-06-22T08:43:35;100156.97;;;28.01;50.23
81397;BME280;70852;49.908;8.126;2023-06-22T08:46:00;100152.63;;;27.60;51.12
81397;BME280;70852;49.908;8.126;2023-06-22T08:48:28;100150.53;;;27.64;51.41
81397;BME280;70852;49.908;8.126;2023-06-22T08:50:54;100162.97;;;27.87;50.74
81397;BME280;70852;49.908;8.126;2023-06-22T08:53:21;100155.53;;;27.57;51.51
81397;BME280;70852;49.908;8.126;2023-06-22T08:55:47;100156.03;;;28.56;50.10
81397;BME280;70852;49.908;8.126;2023-06-22T08:58:15;100155.47;;;28.94;48.29
81397;BME280;70852;49.908;8.126;2023-06-22T09:00:40;100147.66;;;28.98;47.14
81397;BME280;70852;49.908;8.126;2023-06-22T09:03:05;100147.84;;;29.48;46.65
81397;BME280;70852;49.908;8.126;2023-06-22T09:05:33;100136.38;;;29.52;47.25
81397;BME280;70852;49.908;8.126;2023-06-22T09:08:00;100145.66;;;29.40;47.77
81397;BME280;70852;49.908;8.126;2023-06-22T09:10:26;100130.69;;;29.23;48.32
81397;BME280;70852;49.908;8.126;2023-06-22T09:12:56;100129.06;;;28.81;48.64
81397;BME280;70852;49.908;8.126;2023-06-22T09:15:24;100131.44;;;28.66;49.25
81397;BME280;70852;49.908;8.126;2023-06-22T09:17:52;100125.09;;;29.61;47.61
81397;BME280;70852;49.908;8.126;2023-06-22T09:20:24;100117.28;;;29.36;46.66
81397;BME280;70852;49.908;8.126;2023-06-22T09:22:49;100130.72;;;30.03;45.98
81397;BME280;70852;49.908;8.126;2023-06-22T09:25:15;100114.69;;;30.09;44.60
81397;BME280;70852;49.908;8.126;2023-06-22T09:27:47;100119.53;;;29.70;44.50
81397;BME280;70852;49.908;8.126;2023-06-22T09:30:13;100136.75;;;28.64;46.15
81397;BME280;70852;49.908;8.126;2023-06-22T09:32:38;100126.50;;;28.21;46.85
81397;BME280;70852;49.908;8.126;2023-06-22T09:35:07;100113.28;;;27.79;48.31
81397;BME280;70852;49.908;8.126;2023-06-22T09:37:35;100106.44;;;28.45;47.36
81397;BME280;70852;49.908;8.126;2023-06-22T09:40:01;100101.03;;;28.34;47.45
81397;BME280;70852;49.908;8.126;2023-06-22T09:42:32;100107.94;;;28.17;48.49
81397;BME280;70852;49.908;8.126;2023-06-22T09:44:59;100102.84;;;28.08;48.33
81397;BME280;70852;49.908;8.126;2023-06-22T09:47:29;100099.97;;;28.28;49.53
81397;BME280;70852;49.908;8.126;2023-06-22T09:49:54;100090.44;;;28.02;48.72
81397;BME280;70852;49.908;8.126;2023-06-22T09:52:23;100084.09;;;28.75;47.50
81397;BME280;70852;49.908;8.126;2023-06-22T09:54:48;100086.88;;;28.79;47.07
81397;BME280;70852;49.908;8.126;2023-06-22T09:57:21;100085.25;;;29.48;46.65
81397;BME280;70852;49.908;8.126;2023-06-22T09:59:46;100085.50;;;29.79;45.07
81397;BME280;70852;49.908;8.126;2023-06-22T10:02:14;100093.03;;;29.86;44.68
81397;BME280;70852;49.908;8.126;2023-06-22T10:04:39;100074.78;;;29.45;45.16
81397;BME280;70852;49.908;8.126;2023-06-22T10:07:05;100066.03;;;29.65;44.63
81397;BME280;70852;49.908;8.126;2023-06-22T10:09:31;100061.22;;;29.37;44.56
81397;BME280;70852;49.908;8.126;2023-06-22T10:11:56;100052.59;;;30.04;45.17
81397;BME280;70852;49.908;8.126;2023-06-22T10:14:21;100039.84;;;30.08;44.49
81397;BME280;70852;49.908;8.126;2023-06-22T10:16:52;100045.59;;;30.30;43.15
81397;BME280;70852;49.908;8.126;2023-06-22T10:19:17;100028.31;;;30.59;42.99
81397;BME280;70852;49.908;8.126;2023-06-22T10:21:48;100024.47;;;30.97;42.35
81397;BME280;70852;49.908;8.126;2023-06-22T10:24:13;100021.28;;;30.94;42.35
81397;BME280;70852;49.908;8.126;2023-06-22T10:26:39;100026.00;;;30.67;42.12
81397;BME280;70852;49.908;8.126;2023-06-22T10:29:04;100005.31;;;30.53;42.95
81397;BME280;70852;49.908;8.126;2023-06-22T10:31:30;100000.34;;;31.10;41.54
81397;BME280;70852;49.908;8.126;2023-06-22T10:33:55;100000.22;;;31.14;41.55
81397;BME280;70852;49.908;8.126;2023-06-22T10:36:23;99999.94;;;30.99;40.56
81397;BME280;70852;49.908;8.126;2023-06-22T10:38:49;99997.63;;;30.63;41.86
81397;BME280;70852;49.908;8.126;2023-06-22T10:41:17;99993.50;;;30.86;41.80
81397;BME280;70852;49.908;8.126;2023-06-22T10:43:45;99979.66;;;30.97;40.63
81397;BME280;70852;49.908;8.126;2023-06-22T10:46:13;99988.09;;;31.32;41.02
81397;BME280;70852;49.908;8.126;2023-06-22T10:48:38;99987.56;;;31.15;39.86
81397;BME280;70852;49.908;8.126;2023-06-22T10:51:06;99976.38;;;31.29;40.31
81397;BME280;70852;49.908;8.126;2023-06-22T10:53:31;99986.34;;;31.03;40.25
81397;BME280;70852;49.908;8.126;2023-06-22T10:56:02;99989.09;;;31.47;39.45
81397;BME280;70852;49.908;8.126;2023-06-22T10:58:27;99987.72;;;31.60;39.58
81397;BME280;70852;49.908;8.126;2023-06-22T11:00:52;99978.53;;;32.06;38.75
81397;BME280;70852;49.908;8.126;2023-06-22T11:03:22;99977.84;;;31.92;38.74
81397;BME280;70852;49.908;8.126;2023-06-22T11:05:50;99964.94;;;32.19;37.85
81397;BME280;70852;49.908;8.126;2023-06-22T11:08:17;99963.94;;;32.77;37.88
81397;BME280;70852;49.908;8.126;2023-06-22T11:10:43;99956.19;;;32.59;36.35
81397;BME280;70852;49.908;8.126;2023-06-22T11:13:13;99956.00;;;32.90;36.16
81397;BME280;70852;49.908;8.126;2023-06-22T11:15:39;99950.63;;;32.83;35.87
81397;BME280;70852;49.908;8.126;2023-06-22T11:18:07;99956.06;;;33.23;35.97
81397;BME280;70852;49.908;8.126;2023-06-22T11:20:35;99952.88;;;33.21;34.75
81397;BME280;70852;49.908;8.126;2023-06-22T11:23:04;99948.53;;;32.74;36.06
81397;BME280;70852;49.908;8.126;2023-06-22T11:25:31;99947.75;;;33.34;35.15
81397;BME280;70852;49.908;8.126;2023-06-22T11:27:58;99957.31;;;32.70;36.08
81397;BME280;70852;49.908;8.126;2023-06-22T11:30:26;99953.66;;;32.52;36.65
81397;BME280;70852;49.908;8.126;2023-06-22T11:32:52;99953.16;;;32.53;36.52
81397;BME280;70852;49.908;8.126;2023-06-22T11:35:20;99952.50;;;32.13;36.38
81397;BME280;70852;49.908;8.126;2023-06-22T11:37:45;99958.22;;;32.67;36.48
81397;BME280;70852;49.908;8.126;2023-06-22T11:40:13;99949.06;;;32.18;37.42
81397;BME280;70852;49.908;8.126;2023-06-22T11:42:38;99935.03;;;32.56;37.63
81397;BME280;70852;49.908;8.126;2023-06-22T11:45:04;99927.19;;;33.02;36.37
81397;BME280;70852;49.908;8.126;2023-06-22T11:47:32;99926.00;;;33.18;35.01
81397;BME280;70852;49.908;8.126;2023-06-22T11:49:58;99921.72;;;32.71;36.21
81397;BME280;70852;49.908;8.126;2023-06-22T11:52:25;99912.66;;;33.24;35.87
81397;BME280;70852;49.908;8.126;2023-06-22T11:54:52;99904.03;;;33.33;36.09
81397;BME280;70852;49.908;8.126;2023-06-22T11:57:17;99910.94;;;33.51;34.69
81397;BME280;70852;49.908;8.126;2023-06-22T11:59:43;99903.41;;;33.86;34.82
81397;BME280;70852;49.908;8.126;2023-06-22T12:02:10;99913.00;;;33.26;35.13
81397;BME280;70852;49.908;8.126;2023-06-22T12:04:38;99907.97;;;33.93;35.68
81397;BME280;70852;49.908;8.126;2023-06-22T12:07:03;99905.59;;;33.67;35.26
81397;BME280;70852;49.908;8.126;2023-06-22T12:09:31;99912.22;;;34.21;33.79
81397;BME280;70852;49.908;8.126;2023-06-22T12:12:04;99904.97;;;33.63;33.79
81397;BME280;70852;49.908;8.126;2023-06-22T12:14:31;99907.09;;;33.21;34.67
81397;BME280;70852;49.908;8.126;2023-06-22T12:16:57;99901.91;;;33.76;34.19
81397;BME280;70852;49.908;8.126;2023-06-22T12:19:24;99905.84;;;33.55;34.94
81397;BME280;70852;49.908;8.126;2023-06-22T12:21:52;99893.47;;;33.96;34.15
81397;BME280;70852;49.908;8.126;2023-06-22T12:24:17;99896.03;;;33.04;35.55
81397;BME280;70852;49.908;8.126;2023-06-22T12:26:42;99894.72;;;33.15;35.46
81397;BME280;70852;49.908;8.126;2023-06-22T12:29:10;99876.88;;;33.53;35.06
81397;BME280;70852;49.908;8.126;2023-06-22T12:31:36;99878.94;;;33.28;35.19
81397;BME280;70852;49.908;8.126;2023-06-22T12:34:04;99870.06;;;33.74;34.81
81397;BME280;70852;49.908;8.126;2023-06-22T12:36:30;99865.78;;;33.69;35.65
81397;BME280;70852;49.908;8.126;2023-06-22T12:38:59;99876.56;;;33.18;35.79
81397;BME280;70852;49.908;8.126;2023-06-22T12:41:37;99876.06;;;33.28;35.47
81397;BME280;70852;49.908;8.126;2023-06-22T12:44:02;99869.56;;;32.86;36.85
81397;BME280;70852;49.908;8.126;2023-06-22T12:46:30;99865.63;;;33.16;35.80
81397;BME280;70852;49.908;8.126;2023-06-22T12:49:02;99857.91;;;32.98;36.69
81397;BME280;70852;49.908;8.126;2023-06-22T12:51:31;99863.09;;;33.09;36.16
81397;BME280;70852;49.908;8.126;2023-06-22T12:53:56;99861.81;;;32.77;36.15
81397;BME280;70852;49.908;8.126;2023-06-22T12:56:22;99851.41;;;32.98;36.47
81397;BME280;70852;49.908;8.126;2023-06-22T12:58:49;99849.16;;;33.02;35.17
81397;BME280;70852;49.908;8.126;2023-06-22T13:01:17;99837.91;;;33.31;35.49
81397;BME280;70852;49.908;8.126;2023-06-22T13:03:43;99838.16;;;32.67;36.15
81397;BME280;70852;49.908;8.126;2023-06-22T13:06:13;99838.19;;;33.00;35.02